Holstebro, Denmark
Current Conditions -  °F | °C
As of 3:20 PM on Saturday 25 Oct 2014 (Local Time) from EKKA Reporting Station
Scattered Clouds Scattered Clouds  
Wind Chill: 57°   Ceiling: Unl
Heat Index: 57°   Visibility: 6mi
Dew Point: 50°   Wind: 9mph
Humidity: 77%   Direction: 260°W
Pressure: 29.94"   Gusts: NA
Location:  56.36°N, 8.62°E
Report Text: EKKA 251320Z AUTO 26008KT 9999NDV SCT027/// 14/10 Q1014
Loading
Personal Weather Stations






























Interactive Weather Map
Tropical Storm Tracking
New forecast layout! Learn more

10-Day Weather Forecast

Advertisements
Track Severe Weather on mobile